sensor_id;sensor_type;location;lat;lon;timestamp;temperature;humidity
23120;DHT22;11729;50.836;4.330;2023-02-28T00:01:28;3.40;99.90
23120;DHT22;11729;50.836;4.330;2023-02-28T00:03:54;3.30;99.90
23120;DHT22;11729;50.836;4.330;2023-02-28T00:06:20;3.30;99.90
23120;DHT22;11729;50.836;4.330;2023-02-28T00:08:46;3.30;99.90
23120;DHT22;11729;50.836;4.330;2023-02-28T00:11:13;3.30;99.90
23120;DHT22;11729;50.836;4.330;2023-02-28T00:13:42;3.30;99.90
23120;DHT22;11729;50.836;4.330;2023-02-28T00:16:10;3.40;99.90
23120;DHT22;11729;50.836;4.330;2023-02-28T00:18:36;3.30;99.90
23120;DHT22;11729;50.836;4.330;2023-02-28T00:21:04;3.30;99.90
23120;DHT22;11729;50.836;4.330;2023-02-28T00:23:30;3.30;99.90
23120;DHT22;11729;50.836;4.330;2023-02-28T00:25:56;3.20;99.90
23120;DHT22;11729;50.836;4.330;2023-02-28T00:28:23;3.10;99.90
23120;DHT22;11729;50.836;4.330;2023-02-28T00:30:49;3.00;99.90
23120;DHT22;11729;50.836;4.330;2023-02-28T00:33:14;3.00;99.90
23120;DHT22;11729;50.836;4.330;2023-02-28T00:35:40;3.00;99.90
23120;DHT22;11729;50.836;4.330;2023-02-28T00:38:06;3.00;99.90
23120;DHT22;11729;50.836;4.330;2023-02-28T00:40:31;2.90;99.90
23120;DHT22;11729;50.836;4.330;2023-02-28T00:42:57;3.00;99.90
23120;DHT22;11729;50.836;4.330;2023-02-28T00:45:23;2.90;99.90
23120;DHT22;11729;50.836;4.330;2023-02-28T00:47:48;3.00;99.90
23120;DHT22;11729;50.836;4.330;2023-02-28T00:50:19;3.20;99.90
23120;DHT22;11729;50.836;4.330;2023-02-28T00:52:45;3.10;99.90
23120;DHT22;11729;50.836;4.330;2023-02-28T00:55:11;3.00;99.90
23120;DHT22;11729;50.836;4.330;2023-02-28T00:57:37;3.00;99.90
23120;DHT22;11729;50.836;4.330;2023-02-28T01:00:03;3.00;99.90
23120;DHT22;11729;50.836;4.330;2023-02-28T01:02:29;3.00;99.90
23120;DHT22;11729;50.836;4.330;2023-02-28T01:04:54;2.90;99.90
23120;DHT22;11729;50.836;4.330;2023-02-28T01:07:22;2.90;99.90
23120;DHT22;11729;50.836;4.330;2023-02-28T01:09:47;2.80;99.90
23120;DHT22;11729;50.836;4.330;2023-02-28T01:12:13;2.80;99.90
23120;DHT22;11729;50.836;4.330;2023-02-28T01:14:39;2.80;99.90
23120;DHT22;11729;50.836;4.330;2023-02-28T01:17:04;2.90;99.90
23120;DHT22;11729;50.836;4.330;2023-02-28T01:19:30;2.70;99.90
23120;DHT22;11729;50.836;4.330;2023-02-28T01:21:55;2.70;99.90
23120;DHT22;11729;50.836;4.330;2023-02-28T01:24:21;2.80;99.90
23120;DHT22;11729;50.836;4.330;2023-02-28T01:26:46;2.90;99.90
23120;DHT22;11729;50.836;4.330;2023-02-28T01:29:12;2.80;99.90
23120;DHT22;11729;50.836;4.330;2023-02-28T01:31:38;2.90;99.90
23120;DHT22;11729;50.836;4.330;2023-02-28T01:34:03;3.00;99.90
23120;DHT22;11729;50.836;4.330;2023-02-28T01:36:29;2.90;99.90
23120;DHT22;11729;50.836;4.330;2023-02-28T01:38:56;2.90;99.90
23120;DHT22;11729;50.836;4.330;2023-02-28T01:41:28;2.90;99.90
23120;DHT22;11729;50.836;4.330;2023-02-28T01:46:22;2.70;99.90
23120;DHT22;11729;50.836;4.330;2023-02-28T01:48:53;2.70;99.90
23120;DHT22;11729;50.836;4.330;2023-02-28T01:51:44;2.80;99.90
23120;DHT22;11729;50.836;4.330;2023-02-28T01:54:16;2.80;99.90
23120;DHT22;11729;50.836;4.330;2023-02-28T01:56:49;2.70;99.90
23120;DHT22;11729;50.836;4.330;2023-02-28T01:59:23;2.60;99.90
23120;DHT22;11729;50.836;4.330;2023-02-28T02:01:50;2.50;99.90
23120;DHT22;11729;50.836;4.330;2023-02-28T02:04:16;2.40;99.90
23120;DHT22;11729;50.836;4.330;2023-02-28T02:06:44;2.20;99.90
23120;DHT22;11729;50.836;4.330;2023-02-28T02:09:12;2.20;99.90
23120;DHT22;11729;50.836;4.330;2023-02-28T02:11:40;2.20;99.90
23120;DHT22;11729;50.836;4.330;2023-02-28T02:17:04;2.40;99.90
23120;DHT22;11729;50.836;4.330;2023-02-28T02:36:25;2.30;99.90
23120;DHT22;11729;50.836;4.330;2023-02-28T02:41:33;2.30;99.90
23120;DHT22;11729;50.836;4.330;2023-02-28T02:46:45;2.40;99.90
23120;DHT22;11729;50.836;4.330;2023-02-28T02:49:24;2.40;99.90
23120;DHT22;11729;50.836;4.330;2023-02-28T02:51:52;2.30;99.90
23120;DHT22;11729;50.836;4.330;2023-02-28T02:54:28;2.20;99.90
23120;DHT22;11729;50.836;4.330;2023-02-28T02:56:57;2.20;99.90
23120;DHT22;11729;50.836;4.330;2023-02-28T02:59:24;2.10;99.90
23120;DHT22;11729;50.836;4.330;2023-02-28T03:01:56;2.10;99.90
23120;DHT22;11729;50.836;4.330;2023-02-28T03:04:24;2.00;99.90
23120;DHT22;11729;50.836;4.330;2023-02-28T03:06:51;2.10;99.90
23120;DHT22;11729;50.836;4.330;2023-02-28T03:09:21;2.10;99.90
23120;DHT22;11729;50.836;4.330;2023-02-28T03:11:47;2.40;99.90
23120;DHT22;11729;50.836;4.330;2023-02-28T03:22:12;2.30;99.90
23120;DHT22;11729;50.836;4.330;2023-02-28T03:24:46;2.10;99.90
23120;DHT22;11729;50.836;4.330;2023-02-28T03:27:16;2.00;99.90
23120;DHT22;11729;50.836;4.330;2023-02-28T03:29:50;2.20;99.90
23120;DHT22;11729;50.836;4.330;2023-02-28T03:32:34;2.10;99.90
23120;DHT22;11729;50.836;4.330;2023-02-28T03:35:07;2.10;99.90
23120;DHT22;11729;50.836;4.330;2023-02-28T03:37:37;2.00;99.90
23120;DHT22;11729;50.836;4.330;2023-02-28T03:40:13;2.00;99.90
23120;DHT22;11729;50.836;4.330;2023-02-28T03:42:42;2.10;99.90
23120;DHT22;11729;50.836;4.330;2023-02-28T03:45:29;2.20;99.90
23120;DHT22;11729;50.836;4.330;2023-02-28T03:48:09;2.10;99.90
23120;DHT22;11729;50.836;4.330;2023-02-28T03:50:40;2.00;99.90
23120;DHT22;11729;50.836;4.330;2023-02-28T03:55:47;1.90;99.90
23120;DHT22;11729;50.836;4.330;2023-02-28T04:01:00;1.80;99.90
23120;DHT22;11729;50.836;4.330;2023-02-28T04:03:35;1.70;99.90
23120;DHT22;11729;50.836;4.330;2023-02-28T04:06:01;1.80;99.90
23120;DHT22;11729;50.836;4.330;2023-02-28T04:08:28;1.80;99.90
23120;DHT22;11729;50.836;4.330;2023-02-28T04:11:02;1.80;99.90
23120;DHT22;11729;50.836;4.330;2023-02-28T04:13:29;1.70;99.90
23120;DHT22;11729;50.836;4.330;2023-02-28T04:15:55;1.70;99.90
23120;DHT22;11729;50.836;4.330;2023-02-28T04:18:20;1.80;99.90
23120;DHT22;11729;50.836;4.330;2023-02-28T04:20:46;1.80;99.90
23120;DHT22;11729;50.836;4.330;2023-02-28T04:23:11;1.80;99.90
23120;DHT22;11729;50.836;4.330;2023-02-28T04:25:38;1.70;99.90
23120;DHT22;11729;50.836;4.330;2023-02-28T04:28:06;1.60;99.90
23120;DHT22;11729;50.836;4.330;2023-02-28T04:30:31;1.50;99.90
23120;DHT22;11729;50.836;4.330;2023-02-28T04:32:58;1.60;99.90
23120;DHT22;11729;50.836;4.330;2023-02-28T04:35:23;1.70;99.90
23120;DHT22;11729;50.836;4.330;2023-02-28T04:37:49;1.60;99.90
23120;DHT22;11729;50.836;4.330;2023-02-28T04:40:15;1.70;99.90
23120;DHT22;11729;50.836;4.330;2023-02-28T04:42:40;1.90;99.90
23120;DHT22;11729;50.836;4.330;2023-02-28T04:45:06;1.90;99.90
23120;DHT22;11729;50.836;4.330;2023-02-28T04:47:35;1.70;99.90
23120;DHT22;11729;50.836;4.330;2023-02-28T04:50:01;1.80;99.90
23120;DHT22;11729;50.836;4.330;2023-02-28T04:52:27;1.60;99.90
23120;DHT22;11729;50.836;4.330;2023-02-28T04:54:53;1.50;99.90
23120;DHT22;11729;50.836;4.330;2023-02-28T04:57:18;1.60;99.90
23120;DHT22;11729;50.836;4.330;2023-02-28T04:59:44;1.70;99.90
23120;DHT22;11729;50.836;4.330;2023-02-28T05:02:09;1.80;99.90
23120;DHT22;11729;50.836;4.330;2023-02-28T05:04:36;2.10;99.90
23120;DHT22;11729;50.836;4.330;2023-02-28T05:07:02;1.90;99.90
23120;DHT22;11729;50.836;4.330;2023-02-28T05:09:28;1.90;99.90
23120;DHT22;11729;50.836;4.330;2023-02-28T05:11:55;2.00;99.90
23120;DHT22;11729;50.836;4.330;2023-02-28T05:14:22;2.10;99.90
23120;DHT22;11729;50.836;4.330;2023-02-28T05:16:49;2.20;99.90
23120;DHT22;11729;50.836;4.330;2023-02-28T05:19:14;2.10;99.90
23120;DHT22;11729;50.836;4.330;2023-02-28T05:21:48;2.20;99.90
23120;DHT22;11729;50.836;4.330;2023-02-28T05:24:14;2.20;99.90
23120;DHT22;11729;50.836;4.330;2023-02-28T05:26:42;2.20;99.90
23120;DHT22;11729;50.836;4.330;2023-02-28T05:29:08;2.20;99.90
23120;DHT22;11729;50.836;4.330;2023-02-28T05:31:34;2.10;99.90
23120;DHT22;11729;50.836;4.330;2023-02-28T05:34:00;2.20;99.90
23120;DHT22;11729;50.836;4.330;2023-02-28T05:36:26;2.30;99.90
23120;DHT22;11729;50.836;4.330;2023-02-28T05:38:52;2.20;99.90
23120;DHT22;11729;50.836;4.330;2023-02-28T05:41:19;2.30;99.90
23120;DHT22;11729;50.836;4.330;2023-02-28T05:43:46;2.30;99.90
23120;DHT22;11729;50.836;4.330;2023-02-28T05:46:13;2.10;99.90
23120;DHT22;11729;50.836;4.330;2023-02-28T05:48:41;2.20;99.90
23120;DHT22;11729;50.836;4.330;2023-02-28T05:51:08;2.30;99.90
23120;DHT22;11729;50.836;4.330;2023-02-28T05:53:34;2.20;99.90
23120;DHT22;11729;50.836;4.330;2023-02-28T05:56:00;2.20;99.90
23120;DHT22;11729;50.836;4.330;2023-02-28T05:58:26;2.20;99.90
23120;DHT22;11729;50.836;4.330;2023-02-28T06:00:56;2.10;99.90
23120;DHT22;11729;50.836;4.330;2023-02-28T06:03:23;2.30;99.90
23120;DHT22;11729;50.836;4.330;2023-02-28T06:05:48;2.40;99.90
23120;DHT22;11729;50.836;4.330;2023-02-28T06:08:14;2.50;99.90
23120;DHT22;11729;50.836;4.330;2023-02-28T06:10:39;2.50;99.90
23120;DHT22;11729;50.836;4.330;2023-02-28T06:13:05;2.60;99.90
23120;DHT22;11729;50.836;4.330;2023-02-28T06:15:31;2.70;99.90
23120;DHT22;11729;50.836;4.330;2023-02-28T06:17:58;2.80;99.90
23120;DHT22;11729;50.836;4.330;2023-02-28T06:20:24;2.90;99.90
23120;DHT22;11729;50.836;4.330;2023-02-28T06:22:51;2.90;99.90
23120;DHT22;11729;50.836;4.330;2023-02-28T06:25:17;2.60;99.90
23120;DHT22;11729;50.836;4.330;2023-02-28T06:27:43;2.70;99.90
23120;DHT22;11729;50.836;4.330;2023-02-28T06:30:10;3.00;99.90
23120;DHT22;11729;50.836;4.330;2023-02-28T06:32:35;2.90;99.90
23120;DHT22;11729;50.836;4.330;2023-02-28T06:35:02;2.70;99.90
23120;DHT22;11729;50.836;4.330;2023-02-28T06:37:27;2.70;99.90
23120;DHT22;11729;50.836;4.330;2023-02-28T06:39:54;2.80;99.90
23120;DHT22;11729;50.836;4.330;2023-02-28T06:42:22;3.00;99.90
23120;DHT22;11729;50.836;4.330;2023-02-28T06:44:50;3.10;99.90
23120;DHT22;11729;50.836;4.330;2023-02-28T06:47:16;3.20;99.90
23120;DHT22;11729;50.836;4.330;2023-02-28T06:49:41;3.20;99.90
23120;DHT22;11729;50.836;4.330;2023-02-28T06:52:07;3.20;99.90
23120;DHT22;11729;50.836;4.330;2023-02-28T06:54:34;2.80;99.90
23120;DHT22;11729;50.836;4.330;2023-02-28T06:56:59;2.80;99.90
23120;DHT22;11729;50.836;4.330;2023-02-28T06:59:25;2.90;99.90
23120;DHT22;11729;50.836;4.330;2023-02-28T07:01:51;2.80;99.90
23120;DHT22;11729;50.836;4.330;2023-02-28T07:04:18;2.80;99.90
23120;DHT22;11729;50.836;4.330;2023-02-28T07:06:43;2.90;99.90
23120;DHT22;11729;50.836;4.330;2023-02-28T07:09:09;3.10;99.90
23120;DHT22;11729;50.836;4.330;2023-02-28T07:11:36;3.20;99.90
23120;DHT22;11729;50.836;4.330;2023-02-28T07:14:01;3.10;99.90
23120;DHT22;11729;50.836;4.330;2023-02-28T07:16:27;3.10;99.90
23120;DHT22;11729;50.836;4.330;2023-02-28T07:18:53;3.20;99.90
23120;DHT22;11729;50.836;4.330;2023-02-28T07:21:19;3.00;99.90
23120;DHT22;11729;50.836;4.330;2023-02-28T07:23:45;2.90;99.90
23120;DHT22;11729;50.836;4.330;2023-02-28T07:26:14;3.00;99.90
23120;DHT22;11729;50.836;4.330;2023-02-28T07:28:45;3.00;99.90
23120;DHT22;11729;50.836;4.330;2023-02-28T07:31:12;3.10;99.90
23120;DHT22;11729;50.836;4.330;2023-02-28T07:33:40;3.20;99.90
23120;DHT22;11729;50.836;4.330;2023-02-28T07:36:08;3.20;99.90
23120;DHT22;11729;50.836;4.330;2023-02-28T07:38:35;3.60;99.90
23120;DHT22;11729;50.836;4.330;2023-02-28T07:41:02;3.70;99.90
23120;DHT22;11729;50.836;4.330;2023-02-28T07:43:31;3.70;99.90
23120;DHT22;11729;50.836;4.330;2023-02-28T07:46:05;3.80;99.90
23120;DHT22;11729;50.836;4.330;2023-02-28T07:48:31;4.00;99.90
23120;DHT22;11729;50.836;4.330;2023-02-28T07:50:58;4.30;99.90
23120;DHT22;11729;50.836;4.330;2023-02-28T07:53:24;4.30;99.90
23120;DHT22;11729;50.836;4.330;2023-02-28T07:55:50;4.10;99.90
23120;DHT22;11729;50.836;4.330;2023-02-28T07:58:15;4.00;99.90
23120;DHT22;11729;50.836;4.330;2023-02-28T08:00:41;4.00;99.90
23120;DHT22;11729;50.836;4.330;2023-02-28T08:03:10;4.10;99.90
23120;DHT22;11729;50.836;4.330;2023-02-28T08:05:40;4.50;99.90
23120;DHT22;11729;50.836;4.330;2023-02-28T08:08:07;4.30;99.90
23120;DHT22;11729;50.836;4.330;2023-02-28T08:10:33;4.70;99.90
23120;DHT22;11729;50.836;4.330;2023-02-28T08:12:59;5.20;99.90
23120;DHT22;11729;50.836;4.330;2023-02-28T08:15:25;5.70;99.90
23120;DHT22;11729;50.836;4.330;2023-02-28T08:17:51;6.20;99.90
23120;DHT22;11729;50.836;4.330;2023-02-28T08:20:16;7.10;99.90
23120;DHT22;11729;50.836;4.330;2023-02-28T08:22:42;7.60;99.90
23120;DHT22;11729;50.836;4.330;2023-02-28T08:25:08;8.00;99.90
23120;DHT22;11729;50.836;4.330;2023-02-28T08:27:35;8.40;99.90
23120;DHT22;11729;50.836;4.330;2023-02-28T08:30:00;8.20;99.90
23120;DHT22;11729;50.836;4.330;2023-02-28T08:32:26;8.40;99.50
23120;DHT22;11729;50.836;4.330;2023-02-28T08:34:52;8.40;99.80
23120;DHT22;11729;50.836;4.330;2023-02-28T08:37:21;8.60;98.80
23120;DHT22;11729;50.836;4.330;2023-02-28T08:39:50;8.90;97.30
23120;DHT22;11729;50.836;4.330;2023-02-28T08:42:15;9.40;95.80
23120;DHT22;11729;50.836;4.330;2023-02-28T08:44:41;9.40;95.40
23120;DHT22;11729;50.836;4.330;2023-02-28T08:47:08;9.00;93.60
23120;DHT22;11729;50.836;4.330;2023-02-28T08:49:33;8.20;95.90
23120;DHT22;11729;50.836;4.330;2023-02-28T08:51:59;8.90;96.20
23120;DHT22;11729;50.836;4.330;2023-02-28T08:54:25;9.10;95.40
23120;DHT22;11729;50.836;4.330;2023-02-28T08:56:51;8.40;94.40
23120;DHT22;11729;50.836;4.330;2023-02-28T08:59:17;8.10;96.20
23120;DHT22;11729;50.836;4.330;2023-02-28T09:01:42;8.60;96.10
23120;DHT22;11729;50.836;4.330;2023-02-28T09:04:09;9.30;94.70
23120;DHT22;11729;50.836;4.330;2023-02-28T09:06:36;8.50;92.90
23120;DHT22;11729;50.836;4.330;2023-02-28T09:09:01;7.90;93.40
23120;DHT22;11729;50.836;4.330;2023-02-28T09:11:29;6.70;97.20
23120;DHT22;11729;50.836;4.330;2023-02-28T09:13:55;6.10;98.80
23120;DHT22;11729;50.836;4.330;2023-02-28T09:16:21;5.60;99.90
23120;DHT22;11729;50.836;4.330;2023-02-28T09:18:47;5.40;99.90
23120;DHT22;11729;50.836;4.330;2023-02-28T09:21:17;5.40;99.90
23120;DHT22;11729;50.836;4.330;2023-02-28T09:23:44;5.30;99.90
23120;DHT22;11729;50.836;4.330;2023-02-28T09:26:27;5.50;99.90
23120;DHT22;11729;50.836;4.330;2023-02-28T09:28:53;5.00;99.90
23120;DHT22;11729;50.836;4.330;2023-02-28T09:31:21;4.70;99.90
23120;DHT22;11729;50.836;4.330;2023-02-28T09:33:52;4.30;99.90
23120;DHT22;11729;50.836;4.330;2023-02-28T09:36:18;4.10;99.90
23120;DHT22;11729;50.836;4.330;2023-02-28T09:38:44;4.50;99.90
23120;DHT22;11729;50.836;4.330;2023-02-28T09:41:17;4.80;99.90
23120;DHT22;11729;50.836;4.330;2023-02-28T09:43:49;5.10;99.90
23120;DHT22;11729;50.836;4.330;2023-02-28T09:46:37;5.30;99.90
23120;DHT22;11729;50.836;4.330;2023-02-28T09:49:10;5.10;99.90
23120;DHT22;11729;50.836;4.330;2023-02-28T09:51:47;5.20;99.90
23120;DHT22;11729;50.836;4.330;2023-02-28T09:54:20;5.50;99.90
23120;DHT22;11729;50.836;4.330;2023-02-28T09:56:56;5.40;99.30
23120;DHT22;11729;50.836;4.330;2023-02-28T09:59:48;5.10;99.90
23120;DHT22;11729;50.836;4.330;2023-02-28T10:05:15;5.40;99.30
23120;DHT22;11729;50.836;4.330;2023-02-28T10:10:24;5.10;99.90
23120;DHT22;11729;50.836;4.330;2023-02-28T10:12:57;5.40;99.10
23120;DHT22;11729;50.836;4.330;2023-02-28T10:15:25;5.20;99.00
23120;DHT22;11729;50.836;4.330;2023-02-28T10:17:56;5.30;99.50
23120;DHT22;11729;50.836;4.330;2023-02-28T10:20:24;5.60;99.00
23120;DHT22;11729;50.836;4.330;2023-02-28T10:23:04;5.50;98.00
23120;DHT22;11729;50.836;4.330;2023-02-28T10:25:36;5.60;97.40
23120;DHT22;11729;50.836;4.330;2023-02-28T10:28:13;5.70;97.00
23120;DHT22;11729;50.836;4.330;2023-02-28T10:30:50;6.40;96.00
23120;DHT22;11729;50.836;4.330;2023-02-28T10:33:23;7.20;93.90
23120;DHT22;11729;50.836;4.330;2023-02-28T10:35:50;7.60;91.20
23120;DHT22;11729;50.836;4.330;2023-02-28T10:38:22;7.80;90.90
23120;DHT22;11729;50.836;4.330;2023-02-28T10:40:48;8.10;87.80
23120;DHT22;11729;50.836;4.330;2023-02-28T10:45:51;7.40;83.80
23120;DHT22;11729;50.836;4.330;2023-02-28T10:55:43;9.00;78.80
23120;DHT22;11729;50.836;4.330;2023-02-28T10:58:22;9.50;74.10
23120;DHT22;11729;50.836;4.330;2023-02-28T11:00:48;9.30;72.20
23120;DHT22;11729;50.836;4.330;2023-02-28T11:03:34;9.90;74.20
23120;DHT22;11729;50.836;4.330;2023-02-28T11:06:06;10.00;71.80
23120;DHT22;11729;50.836;4.330;2023-02-28T11:08:33;10.50;68.60
23120;DHT22;11729;50.836;4.330;2023-02-28T11:11:04;10.50;67.90
23120;DHT22;11729;50.836;4.330;2023-02-28T11:13:34;10.60;68.50
23120;DHT22;11729;50.836;4.330;2023-02-28T11:16:06;10.00;66.20
23120;DHT22;11729;50.836;4.330;2023-02-28T11:21:18;10.40;65.40
23120;DHT22;11729;50.836;4.330;2023-02-28T11:23:45;10.10;65.50
23120;DHT22;11729;50.836;4.330;2023-02-28T11:26:11;9.40;66.00
23120;DHT22;11729;50.836;4.330;2023-02-28T11:28:40;9.10;70.00
23120;DHT22;11729;50.836;4.330;2023-02-28T11:36:28;10.90;65.00
23120;DHT22;11729;50.836;4.330;2023-02-28T11:38:57;11.10;63.10
23120;DHT22;11729;50.836;4.330;2023-02-28T11:44:01;10.40;64.20
23120;DHT22;11729;50.836;4.330;2023-02-28T11:46:46;9.60;63.30
23120;DHT22;11729;50.836;4.330;2023-02-28T11:49:22;8.30;67.20
23120;DHT22;11729;50.836;4.330;2023-02-28T11:52:13;7.80;69.40
23120;DHT22;11729;50.836;4.330;2023-02-28T11:54:48;8.00;71.30
23120;DHT22;11729;50.836;4.330;2023-02-28T12:03:21;8.80;70.70
23120;DHT22;11729;50.836;4.330;2023-02-28T12:11:31;10.60;66.20
23120;DHT22;11729;50.836;4.330;2023-02-28T12:19:44;10.90;62.90
23120;DHT22;11729;50.836;4.330;2023-02-28T12:22:39;11.80;61.60
23120;DHT22;11729;50.836;4.330;2023-02-28T12:25:32;12.00;59.80
23120;DHT22;11729;50.836;4.330;2023-02-28T12:28:02;12.30;59.00
23120;DHT22;11729;50.836;4.330;2023-02-28T12:30:32;12.30;56.50
23120;DHT22;11729;50.836;4.330;2023-02-28T12:33:12;12.30;56.60
23120;DHT22;11729;50.836;4.330;2023-02-28T12:36:19;11.50;56.60
23120;DHT22;11729;50.836;4.330;2023-02-28T12:38:43;10.60;56.90
23120;DHT22;11729;50.836;4.330;2023-02-28T12:41:15;9.90;58.80
23120;DHT22;11729;50.836;4.330;2023-02-28T12:43:45;10.60;59.20
23120;DHT22;11729;50.836;4.330;2023-02-28T12:46:47;11.40;61.00
23120;DHT22;11729;50.836;4.330;2023-02-28T12:51:44;11.20;56.60
23120;DHT22;11729;50.836;4.330;2023-02-28T12:54:19;10.60;58.10
23120;DHT22;11729;50.836;4.330;2023-02-28T12:57:02;11.20;58.30
23120;DHT22;11729;50.836;4.330;2023-02-28T12:59:54;10.90;56.80
23120;DHT22;11729;50.836;4.330;2023-02-28T13:10:04;11.60;55.70
23120;DHT22;11729;50.836;4.330;2023-02-28T13:12:31;10.60;55.50
23120;DHT22;11729;50.836;4.330;2023-02-28T13:15:27;10.70;57.70
23120;DHT22;11729;50.836;4.330;2023-02-28T13:17:56;10.20;56.20
23120;DHT22;11729;50.836;4.330;2023-02-28T13:20:25;10.30;56.80
23120;DHT22;11729;50.836;4.330;2023-02-28T13:22:53;10.50;58.40
23120;DHT22;11729;50.836;4.330;2023-02-28T13:27:55;11.50;55.50
23120;DHT22;11729;50.836;4.330;2023-02-28T13:33:34;11.00;55.30
23120;DHT22;11729;50.836;4.330;2023-02-28T13:38:45;10.80;56.20
23120;DHT22;11729;50.836;4.330;2023-02-28T13:41:43;11.20;55.90
23120;DHT22;11729;50.836;4.330;2023-02-28T13:44:22;11.50;55.60
23120;DHT22;11729;50.836;4.330;2023-02-28T13:51:54;11.50;55.50
23120;DHT22;11729;50.836;4.330;2023-02-28T13:57:21;11.70;54.20
23120;DHT22;11729;50.836;4.330;2023-02-28T14:05:33;10.00;57.20
23120;DHT22;11729;50.836;4.330;2023-02-28T14:08:05;10.80;56.00
23120;DHT22;11729;50.836;4.330;2023-02-28T14:10:39;11.30;54.60
23120;DHT22;11729;50.836;4.330;2023-02-28T14:16:01;11.70;52.20
23120;DHT22;11729;50.836;4.330;2023-02-28T14:18:40;11.80;53.90
23120;DHT22;11729;50.836;4.330;2023-02-28T14:21:23;11.80;53.50
23120;DHT22;11729;50.836;4.330;2023-02-28T14:32:32;11.30;52.60
23120;DHT22;11729;50.836;4.330;2023-02-28T14:37:33;9.90;55.80
23120;DHT22;11729;50.836;4.330;2023-02-28T14:40:02;9.00;56.50
23120;DHT22;11729;50.836;4.330;2023-02-28T14:42:35;7.70;60.10
23120;DHT22;11729;50.836;4.330;2023-02-28T14:45:01;7.20;62.50
23120;DHT22;11729;50.836;4.330;2023-02-28T14:47:31;7.20;63.80
23120;DHT22;11729;50.836;4.330;2023-02-28T14:49:59;7.10;64.90
23120;DHT22;11729;50.836;4.330;2023-02-28T14:52:30;6.90;65.30
23120;DHT22;11729;50.836;4.330;2023-02-28T14:57:30;6.70;66.30
23120;DHT22;11729;50.836;4.330;2023-02-28T15:00:25;6.60;66.50
23120;DHT22;11729;50.836;4.330;2023-02-28T15:02:52;6.30;67.50
23120;DHT22;11729;50.836;4.330;2023-02-28T15:05:30;6.40;69.20
23120;DHT22;11729;50.836;4.330;2023-02-28T15:08:15;6.30;68.90
23120;DHT22;11729;50.836;4.330;2023-02-28T15:11:05;6.60;71.00
23120;DHT22;11729;50.836;4.330;2023-02-28T15:16:16;7.00;69.30
23120;DHT22;11729;50.836;4.330;2023-02-28T15:21:12;7.00;68.80
23120;DHT22;11729;50.836;4.330;2023-02-28T15:23:40;6.90;68.90
23120;DHT22;11729;50.836;4.330;2023-02-28T15:26:09;6.90;70.40
23120;DHT22;11729;50.836;4.330;2023-02-28T15:28:35;6.80;71.30
23120;DHT22;11729;50.836;4.330;2023-02-28T15:31:04;7.00;70.30
23120;DHT22;11729;50.836;4.330;2023-02-28T15:33:53;7.00;70.60
23120;DHT22;11729;50.836;4.330;2023-02-28T15:36:19;7.00;70.90
23120;DHT22;11729;50.836;4.330;2023-02-28T15:38:52;6.80;71.40
23120;DHT22;11729;50.836;4.330;2023-02-28T15:41:27;6.70;73.40
23120;DHT22;11729;50.836;4.330;2023-02-28T15:44:17;6.70;74.40
23120;DHT22;11729;50.836;4.330;2023-02-28T15:46:59;6.70;74.10
23120;DHT22;11729;50.836;4.330;2023-02-28T15:49:27;6.50;74.70
23120;DHT22;11729;50.836;4.330;2023-02-28T15:51:57;6.60;75.50
23120;DHT22;11729;50.836;4.330;2023-02-28T15:54:28;6.50;74.30
23120;DHT22;11729;50.836;4.330;2023-02-28T15:57:06;6.50;75.00
23120;DHT22;11729;50.836;4.330;2023-02-28T15:59:36;6.40;74.10
23120;DHT22;11729;50.836;4.330;2023-02-28T16:02:29;6.50;75.30
23120;DHT22;11729;50.836;4.330;2023-02-28T16:07:37;6.30;75.30
23120;DHT22;11729;50.836;4.330;2023-02-28T16:10:04;6.40;76.80
23120;DHT22;11729;50.836;4.330;2023-02-28T16:12:33;6.50;76.40
23120;DHT22;11729;50.836;4.330;2023-02-28T16:15:05;6.50;76.00
23120;DHT22;11729;50.836;4.330;2023-02-28T16:17:35;6.40;77.50
23120;DHT22;11729;50.836;4.330;2023-02-28T16:20:12;6.50;77.90
23120;DHT22;11729;50.836;4.330;2023-02-28T16:22:38;6.70;76.40
23120;DHT22;11729;50.836;4.330;2023-02-28T16:25:05;6.60;76.70
23120;DHT22;11729;50.836;4.330;2023-02-28T16:27:35;6.40;76.90
23120;DHT22;11729;50.836;4.330;2023-02-28T16:30:03;6.40;77.40
23120;DHT22;11729;50.836;4.330;2023-02-28T16:32:30;6.50;78.70
23120;DHT22;11729;50.836;4.330;2023-02-28T16:34:58;6.30;78.50
23120;DHT22;11729;50.836;4.330;2023-02-28T16:37:23;6.30;79.70
23120;DHT22;11729;50.836;4.330;2023-02-28T16:39:49;6.20;80.60
23120;DHT22;11729;50.836;4.330;2023-02-28T16:42:23;6.30;82.80
23120;DHT22;11729;50.836;4.330;2023-02-28T16:44:50;6.30;81.20
23120;DHT22;11729;50.836;4.330;2023-02-28T16:47:16;6.20;81.10
23120;DHT22;11729;50.836;4.330;2023-02-28T16:49:42;6.00;81.00
23120;DHT22;11729;50.836;4.330;2023-02-28T16:52:09;6.00;81.50
23120;DHT22;11729;50.836;4.330;2023-02-28T16:54:35;5.90;81.80
23120;DHT22;11729;50.836;4.330;2023-02-28T16:57:01;6.00;83.90
23120;DHT22;11729;50.836;4.330;2023-02-28T16:59:27;6.00;81.90
23120;DHT22;11729;50.836;4.330;2023-02-28T17:01:55;5.80;83.10
23120;DHT22;11729;50.836;4.330;2023-02-28T17:04:23;5.80;84.70
23120;DHT22;11729;50.836;4.330;2023-02-28T17:06:49;5.80;84.10
23120;DHT22;11729;50.836;4.330;2023-02-28T17:09:21;5.80;84.50
23120;DHT22;11729;50.836;4.330;2023-02-28T17:11:47;5.80;85.60
23120;DHT22;11729;50.836;4.330;2023-02-28T17:14:13;5.80;84.80
23120;DHT22;11729;50.836;4.330;2023-02-28T17:16:39;5.90;85.90
23120;DHT22;11729;50.836;4.330;2023-02-28T17:19:07;5.90;86.00
23120;DHT22;11729;50.836;4.330;2023-02-28T17:21:36;5.90;85.60
23120;DHT22;11729;50.836;4.330;2023-02-28T17:24:02;5.90;85.50
23120;DHT22;11729;50.836;4.330;2023-02-28T17:26:28;6.00;85.90
23120;DHT22;11729;50.836;4.330;2023-02-28T17:28:55;6.00;85.60
23120;DHT22;11729;50.836;4.330;2023-02-28T17:31:22;6.00;85.80
23120;DHT22;11729;50.836;4.330;2023-02-28T17:33:48;5.70;86.00
23120;DHT22;11729;50.836;4.330;2023-02-28T17:36:22;5.70;87.40
23120;DHT22;11729;50.836;4.330;2023-02-28T17:38:48;5.80;86.80
23120;DHT22;11729;50.836;4.330;2023-02-28T17:41:14;5.60;87.90
23120;DHT22;11729;50.836;4.330;2023-02-28T17:43:41;5.60;88.40
23120;DHT22;11729;50.836;4.330;2023-02-28T17:46:18;5.70;88.90
23120;DHT22;11729;50.836;4.330;2023-02-28T17:48:46;5.50;88.20
23120;DHT22;11729;50.836;4.330;2023-02-28T17:51:14;5.70;89.70
23120;DHT22;11729;50.836;4.330;2023-02-28T17:53:40;5.60;88.90
23120;DHT22;11729;50.836;4.330;2023-02-28T17:56:10;5.60;88.60
23120;DHT22;11729;50.836;4.330;2023-02-28T17:58:36;5.60;89.10
23120;DHT22;11729;50.836;4.330;2023-02-28T18:01:02;5.60;90.20
23120;DHT22;11729;50.836;4.330;2023-02-28T18:03:27;5.80;89.70
23120;DHT22;11729;50.836;4.330;2023-02-28T18:05:53;5.70;89.70
23120;DHT22;11729;50.836;4.330;2023-02-28T18:08:19;5.60;90.60
23120;DHT22;11729;50.836;4.330;2023-02-28T18:10:45;5.50;90.30
23120;DHT22;11729;50.836;4.330;2023-02-28T18:13:10;5.40;90.40
23120;DHT22;11729;50.836;4.330;2023-02-28T18:15:38;5.50;90.70
23120;DHT22;11729;50.836;4.330;2023-02-28T18:18:03;5.60;91.40
23120;DHT22;11729;50.836;4.330;2023-02-28T18:20:32;5.70;91.00